createdAt,value
2023-02-13T00:01:02.017Z,20.60
2023-02-13T00:03:04.461Z,19.20
2023-02-13T00:05:06.473Z,17.97
2023-02-13T00:07:08.420Z,19.80
2023-02-13T00:09:11.201Z,20.63
2023-02-13T00:11:13.007Z,20.33
2023-02-13T00:13:14.762Z,20.47
2023-02-13T00:15:16.590Z,19.20
2023-02-13T00:17:18.306Z,20.57
2023-02-13T00:19:19.975Z,18.50
2023-02-13T00:21:21.731Z,21.27
2023-02-13T00:23:23.445Z,20.70
2023-02-13T00:25:25.164Z,20.50
2023-02-13T00:27:26.872Z,21.07
2023-02-13T00:29:28.582Z,20.97
2023-02-13T00:31:30.330Z,19.50
2023-02-13T00:33:32.230Z,20.00
2023-02-13T00:35:33.852Z,19.50
2023-02-13T00:37:35.519Z,20.73
2023-02-13T00:39:37.193Z,19.70
2023-02-13T00:41:39.774Z,21.47
2023-02-13T00:43:41.532Z,22.13
2023-02-13T00:45:43.561Z,22.10
2023-02-13T00:47:45.258Z,22.80
2023-02-13T00:49:46.963Z,22.50
2023-02-13T00:51:48.610Z,24.00
2023-02-13T00:53:50.265Z,21.70
2023-02-13T00:55:52.357Z,23.67
2023-02-13T00:57:54.045Z,22.40
2023-02-13T00:59:55.697Z,23.57
2023-02-13T01:01:57.521Z,22.00
2023-02-13T01:03:59.322Z,23.80
2023-02-13T01:06:01.034Z,22.80
2023-02-13T01:08:02.725Z,22.80
2023-02-13T01:10:04.871Z,22.40
2023-02-13T01:12:07.056Z,24.27
2023-02-13T01:14:08.722Z,22.03
2023-02-13T01:16:10.463Z,21.90
2023-02-13T01:18:16.773Z,25.47
2023-02-13T01:20:18.498Z,24.90
2023-02-13T01:22:20.144Z,24.33
2023-02-13T01:24:21.865Z,23.73
2023-02-13T01:26:24.800Z,23.60
2023-02-13T01:28:26.910Z,24.67
2023-02-13T01:30:28.682Z,22.70
2023-02-13T01:32:30.385Z,25.87
2023-02-13T01:34:33.838Z,26.90
2023-02-13T01:36:35.629Z,22.97
2023-02-13T01:38:37.564Z,24.60
2023-02-13T01:40:54.361Z,23.17
2023-02-13T01:42:56.159Z,23.20
2023-02-13T01:45:03.770Z,26.60
2023-02-13T01:47:05.517Z,25.97
2023-02-13T01:49:18.632Z,24.50
2023-02-13T01:51:26.275Z,22.50
2023-02-13T01:53:33.567Z,23.57
2023-02-13T01:55:40.813Z,25.03
2023-02-13T01:57:47.375Z,23.73
2023-02-13T01:59:57.200Z,24.73
2023-02-13T02:02:01.193Z,24.47
2023-02-13T02:04:17.599Z,24.23
2023-02-13T02:06:26.285Z,25.03
2023-02-13T02:08:29.003Z,25.80
2023-02-13T02:10:32.516Z,25.10
2023-02-13T02:12:44.787Z,25.47
2023-02-13T02:14:47.443Z,25.67
2023-02-13T02:16:49.128Z,25.20
2023-02-13T02:18:50.846Z,26.60
2023-02-13T02:21:01.288Z,27.07
2023-02-13T02:23:24.900Z,24.60
2023-02-13T02:25:41.553Z,24.60
2023-02-13T02:28:26.141Z,24.80
2023-02-13T02:30:48.004Z,25.83
2023-02-13T02:33:18.414Z,24.87
2023-02-13T02:35:34.585Z,24.50
2023-02-13T02:37:42.252Z,23.80
2023-02-13T02:40:07.613Z,24.00
2023-02-13T02:42:32.989Z,23.40
2023-02-13T02:44:49.132Z,24.17
2023-02-13T02:47:23.140Z,23.00
2023-02-13T02:49:43.796Z,24.20
2023-02-13T02:52:17.752Z,23.90
2023-02-13T02:54:56.164Z,22.97
2023-02-13T02:57:06.120Z,22.03
2023-02-13T02:59:31.358Z,24.37
2023-02-13T03:01:53.236Z,24.00
2023-02-13T03:04:17.196Z,22.90
2023-02-13T03:06:22.607Z,22.77
2023-02-13T03:08:44.353Z,22.10
2023-02-13T03:11:06.097Z,22.17
2023-02-13T03:13:21.333Z,21.93
2023-02-13T03:15:25.450Z,22.50
2023-02-13T03:17:46.116Z,21.30
2023-02-13T03:20:21.234Z,21.53
2023-02-13T03:22:48.656Z,21.43
2023-02-13T03:25:14.660Z,22.30
2023-02-13T03:27:53.118Z,22.27
2023-02-13T03:30:08.392Z,22.37
2023-02-13T03:32:25.603Z,21.80
2023-02-13T03:34:54.001Z,23.07
2023-02-13T03:37:28.820Z,23.10
2023-02-13T03:39:47.909Z,21.73
2023-02-13T03:42:01.251Z,22.17
2023-02-13T03:44:25.876Z,22.30
2023-02-13T03:46:31.926Z,20.07
2023-02-13T03:48:55.735Z,19.63
2023-02-13T03:51:00.043Z,20.00
2023-02-13T03:53:10.854Z,19.17
2023-02-13T03:55:40.590Z,19.13
2023-02-13T03:58:03.137Z,18.57
2023-02-13T04:00:09.326Z,17.33
2023-02-13T04:02:14.654Z,18.00
2023-02-13T04:04:35.437Z,16.13
2023-02-13T04:07:05.235Z,17.17
2023-02-13T04:09:06.886Z,15.60
2023-02-13T04:12:03.058Z,15.07
2023-02-13T04:14:30.000Z,16.60
2023-02-13T04:16:36.733Z,15.50
2023-02-13T04:18:39.745Z,15.17
2023-02-13T04:20:41.537Z,11.90
2023-02-13T04:22:48.232Z,12.30
2023-02-13T04:24:50.115Z,12.70
2023-02-13T04:26:52.671Z,12.73
2023-02-13T04:28:54.312Z,11.87
2023-02-13T04:30:57.710Z,11.40
2023-02-13T04:32:59.545Z,11.60
2023-02-13T04:35:01.243Z,10.60
2023-02-13T04:37:03.110Z,11.63
2023-02-13T04:39:04.755Z,11.13
2023-02-13T04:41:06.411Z,9.60
2023-02-13T04:43:08.080Z,11.13
2023-02-13T04:45:10.045Z,9.47
2023-02-13T04:47:11.765Z,8.50
2023-02-13T04:49:13.688Z,9.27
2023-02-13T04:51:15.530Z,9.57
2023-02-13T04:53:17.208Z,10.73
2023-02-13T04:55:18.827Z,9.17
2023-02-13T04:57:20.460Z,8.90
2023-02-13T04:59:22.064Z,9.27
2023-02-13T05:01:23.837Z,8.20
2023-02-13T05:03:25.601Z,9.13
2023-02-13T05:05:27.250Z,8.30
2023-02-13T05:07:28.913Z,8.90
2023-02-13T05:09:30.582Z,8.70
2023-02-13T05:11:32.255Z,8.00
2023-02-13T05:13:34.199Z,8.23
2023-02-13T05:15:35.886Z,8.00
2023-02-13T05:17:37.571Z,8.37
2023-02-13T05:19:39.171Z,8.70
2023-02-13T05:21:59.501Z,7.67
2023-02-13T05:24:01.227Z,7.33
2023-02-13T05:26:03.046Z,7.53
2023-02-13T05:28:26.051Z,7.77
2023-02-13T05:30:27.836Z,7.00
2023-02-13T05:32:29.521Z,6.90
2023-02-13T05:34:31.166Z,7.67
2023-02-13T05:36:32.768Z,7.87
2023-02-13T05:38:34.500Z,6.90
2023-02-13T05:40:36.141Z,8.40
2023-02-13T05:42:37.813Z,8.53
2023-02-13T05:44:39.449Z,8.30
2023-02-13T05:46:42.428Z,8.00
2023-02-13T05:48:44.158Z,8.60
2023-02-13T05:50:47.819Z,7.93
2023-02-13T05:52:49.564Z,9.20
2023-02-13T05:54:51.560Z,9.27
2023-02-13T05:56:53.184Z,8.40
2023-02-13T05:58:56.123Z,8.63
2023-02-13T06:00:58.958Z,7.63
2023-02-13T06:03:00.842Z,8.50
2023-02-13T06:05:02.455Z,7.80
2023-02-13T06:07:04.200Z,8.03
2023-02-13T06:09:06.007Z,7.00
2023-02-13T06:11:08.512Z,7.20
2023-02-13T06:13:10.177Z,8.50
2023-02-13T06:15:12.522Z,7.90
2023-02-13T06:17:14.172Z,8.37
2023-02-13T06:19:15.813Z,7.90
2023-02-13T06:21:17.529Z,7.10
2023-02-13T06:23:19.361Z,8.57
2023-02-13T06:25:21.409Z,7.13
2023-02-13T06:27:23.231Z,7.73
2023-02-13T06:29:24.967Z,7.67
2023-02-13T06:31:26.895Z,6.90
2023-02-13T06:33:28.663Z,8.07
2023-02-13T06:35:30.367Z,8.40
2023-02-13T06:37:32.178Z,7.77
2023-02-13T06:39:33.844Z,6.60
2023-02-13T06:41:35.533Z,7.07
2023-02-13T06:43:39.177Z,7.10
2023-02-13T06:45:41.912Z,7.77
2023-02-13T06:47:45.452Z,6.90
2023-02-13T06:49:47.105Z,6.50
2023-02-13T06:51:48.744Z,6.70
2023-02-13T06:53:50.594Z,6.73
2023-02-13T06:55:53.528Z,6.87
2023-02-13T06:57:55.193Z,6.33
2023-02-13T06:59:56.908Z,6.73
2023-02-13T07:01:58.607Z,6.50
2023-02-13T07:04:00.245Z,6.57
2023-02-13T07:06:01.939Z,6.50
2023-02-13T07:08:03.635Z,6.43
2023-02-13T07:10:07.045Z,6.47
2023-02-13T07:12:08.749Z,7.47
2023-02-13T07:14:10.418Z,7.10
2023-02-13T07:16:12.312Z,6.20
2023-02-13T07:18:14.031Z,5.40
2023-02-13T07:20:15.786Z,6.13
2023-02-13T07:22:17.489Z,6.40
2023-02-13T07:24:19.297Z,6.57
2023-02-13T07:26:21.073Z,5.77
2023-02-13T07:28:22.916Z,5.00
2023-02-13T07:30:24.709Z,6.20
2023-02-13T07:32:26.372Z,5.53
2023-02-13T07:34:28.050Z,5.60
2023-02-13T07:36:29.714Z,5.23
2023-02-13T07:38:32.447Z,5.67
2023-02-13T07:40:34.190Z,5.13
2023-02-13T07:42:35.871Z,5.43
2023-02-13T07:44:37.513Z,4.97
2023-02-13T07:46:39.287Z,5.00
2023-02-13T07:48:40.977Z,5.30
2023-02-13T07:50:42.597Z,5.53
2023-02-13T07:52:44.265Z,5.23
2023-02-13T07:54:48.641Z,6.70
2023-02-13T07:56:50.331Z,6.00
2023-02-13T07:58:53.080Z,6.80
2023-02-13T08:00:54.774Z,6.40
2023-02-13T08:03:02.132Z,6.50
2023-02-13T08:05:03.946Z,5.87
2023-02-13T08:07:05.601Z,6.33
2023-02-13T08:09:26.320Z,5.30
2023-02-13T08:11:51.308Z,6.10
2023-02-13T08:13:52.999Z,5.70
2023-02-13T08:15:54.774Z,6.90
2023-02-13T08:17:56.529Z,6.17
2023-02-13T08:19:58.390Z,5.70
2023-02-13T08:22:01.472Z,5.67
2023-02-13T08:24:03.134Z,5.70
2023-02-13T08:26:05.034Z,6.40
2023-02-13T08:28:06.912Z,6.13
2023-02-13T08:30:10.405Z,6.10
2023-02-13T08:32:12.574Z,5.63
2023-02-13T08:34:14.276Z,7.50
2023-02-13T08:36:15.966Z,8.07
2023-02-13T08:38:17.623Z,6.13
2023-02-13T08:40:19.483Z,5.50
2023-02-13T08:42:21.094Z,7.57
2023-02-13T08:44:22.742Z,6.97
2023-02-13T08:46:24.485Z,6.53
2023-02-13T08:48:27.072Z,6.80
2023-02-13T08:50:28.811Z,6.67
2023-02-13T08:52:30.625Z,6.13
2023-02-13T08:54:34.873Z,7.70
2023-02-13T08:56:36.555Z,6.17
2023-02-13T08:58:38.451Z,6.10
2023-02-13T09:00:40.096Z,8.23
2023-02-13T09:02:41.808Z,7.23
2023-02-13T09:04:43.489Z,6.80
2023-02-13T09:06:45.560Z,6.50
2023-02-13T09:08:47.293Z,6.30
2023-02-13T09:10:56.889Z,6.20
2023-02-13T09:12:59.005Z,6.80
2023-02-13T09:15:00.753Z,6.93
2023-02-13T09:17:03.045Z,7.07
2023-02-13T09:19:04.837Z,6.77
2023-02-13T09:21:08.912Z,6.70
2023-02-13T09:23:10.635Z,6.47
2023-02-13T09:25:12.306Z,6.83
2023-02-13T09:27:13.960Z,6.87
2023-02-13T09:29:15.676Z,7.00
2023-02-13T09:31:20.627Z,6.17
2023-02-13T09:33:22.889Z,5.97
2023-02-13T09:35:24.582Z,6.90
2023-02-13T09:37:27.188Z,6.37
2023-02-13T09:39:29.034Z,6.80
2023-02-13T09:41:40.362Z,6.43
2023-02-13T09:43:55.128Z,7.20
2023-02-13T09:46:13.958Z,6.07
2023-02-13T09:48:34.651Z,6.13
2023-02-13T09:50:36.456Z,6.80
2023-02-13T09:52:39.610Z,7.17
2023-02-13T09:54:41.379Z,6.63
2023-02-13T09:57:19.252Z,7.77
2023-02-13T09:59:44.003Z,6.40
2023-02-13T10:01:48.930Z,6.63
2023-02-13T10:04:08.018Z,6.57
2023-02-13T10:06:31.626Z,7.87
2023-02-13T10:09:00.336Z,7.03
2023-02-13T10:11:26.856Z,7.70
2023-02-13T10:13:31.679Z,8.70
2023-02-13T10:16:06.129Z,8.77
2023-02-13T10:18:22.242Z,7.90
2023-02-13T10:20:36.500Z,7.33
2023-02-13T10:22:48.853Z,8.07
2023-02-13T10:25:08.141Z,8.00
2023-02-13T10:27:21.633Z,9.57
2023-02-13T10:29:41.956Z,7.93
2023-02-13T10:31:48.175Z,7.40
2023-02-13T10:33:52.548Z,6.80
2023-02-13T10:36:02.653Z,8.23
2023-02-13T10:38:15.684Z,7.10
2023-02-13T10:40:19.029Z,7.93
2023-02-13T10:42:31.389Z,8.00
2023-02-13T10:44:52.781Z,7.23
2023-02-13T10:47:06.427Z,7.00
2023-02-13T10:49:30.634Z,7.03
2023-02-13T10:51:33.621Z,6.57
2023-02-13T10:54:09.992Z,7.63
2023-02-13T10:56:38.569Z,7.00
2023-02-13T10:58:58.959Z,7.20
2023-02-13T11:01:22.143Z,7.40
2023-02-13T11:03:26.961Z,6.93
2023-02-13T11:05:41.853Z,7.37
2023-02-13T11:07:46.841Z,7.30
2023-02-13T11:09:51.910Z,7.60
2023-02-13T11:11:54.153Z,6.80
2023-02-13T11:14:13.876Z,7.20
2023-02-13T11:16:15.804Z,6.73
2023-02-13T11:18:22.098Z,5.83
2023-02-13T11:20:40.301Z,6.10
2023-02-13T11:22:42.883Z,7.00
2023-02-13T11:24:55.967Z,7.33
2023-02-13T11:27:09.224Z,6.57
2023-02-13T11:29:25.969Z,7.10
2023-02-13T11:31:37.984Z,6.20
2023-02-13T11:33:40.123Z,5.43
2023-02-13T11:35:41.773Z,6.90
2023-02-13T11:37:43.448Z,6.20
2023-02-13T11:39:49.525Z,6.50
2023-02-13T11:41:52.872Z,6.93
2023-02-13T11:44:01.302Z,6.43
2023-02-13T11:46:04.714Z,7.10
2023-02-13T11:48:19.768Z,6.30
2023-02-13T11:50:35.100Z,6.73
2023-02-13T11:52:37.230Z,5.90
2023-02-13T11:54:40.633Z,6.20
2023-02-13T11:57:03.982Z,5.47
2023-02-13T11:59:13.440Z,5.73
2023-02-13T12:01:21.194Z,6.93
2023-02-13T12:03:29.042Z,5.93
2023-02-13T12:05:30.965Z,5.17
2023-02-13T12:07:33.644Z,6.03
2023-02-13T12:09:38.564Z,5.80
2023-02-13T12:11:50.128Z,6.63
2023-02-13T12:13:52.303Z,6.03
2023-02-13T12:16:08.489Z,5.93
2023-02-13T12:18:10.092Z,6.20
2023-02-13T12:20:14.485Z,6.67
2023-02-13T12:22:28.786Z,6.20
2023-02-13T12:24:46.092Z,6.40
2023-02-13T12:26:59.141Z,6.90
2023-02-13T12:29:23.124Z,6.03
2023-02-13T12:32:00.486Z,6.43
2023-02-13T12:34:08.018Z,5.80
2023-02-13T12:36:27.903Z,6.10
2023-02-13T12:38:53.488Z,5.03
2023-02-13T12:41:13.658Z,6.13
2023-02-13T12:43:36.374Z,6.00
2023-02-13T12:45:46.728Z,6.47
2023-02-13T12:48:23.528Z,6.30
2023-02-13T12:50:34.239Z,6.57
2023-02-13T12:53:04.861Z,6.10
2023-02-13T12:55:31.031Z,5.97
2023-02-13T12:58:13.562Z,6.27
2023-02-13T13:00:48.373Z,6.60
2023-02-13T13:03:29.289Z,7.53
2023-02-13T13:05:43.265Z,5.93
2023-02-13T13:07:45.063Z,7.27
2023-02-13T13:10:15.644Z,6.97
2023-02-13T13:12:26.304Z,6.90
2023-02-13T13:15:05.777Z,6.20
2023-02-13T13:17:28.224Z,6.67
2023-02-13T13:19:50.859Z,6.77
2023-02-13T13:22:14.592Z,7.60
2023-02-13T13:24:43.435Z,6.30
2023-02-13T13:26:49.702Z,7.40
2023-02-13T13:28:56.404Z,6.53
2023-02-13T13:30:59.250Z,7.57
2023-02-13T13:33:03.432Z,7.50
2023-02-13T13:35:06.002Z,7.27
2023-02-13T13:37:27.020Z,6.40
2023-02-13T13:39:54.046Z,7.00
2023-02-13T13:42:13.312Z,7.07
2023-02-13T13:44:22.340Z,6.53
2023-02-13T13:46:49.126Z,7.20
2023-02-13T13:49:14.421Z,6.30
2023-02-13T13:51:18.392Z,7.77
2023-02-13T13:53:23.397Z,7.10
2023-02-13T13:55:46.849Z,6.80
2023-02-13T13:57:57.763Z,7.13
2023-02-13T14:00:14.206Z,7.00
2023-02-13T14:02:37.343Z,6.73
2023-02-13T14:04:41.588Z,8.37
2023-02-13T14:06:46.041Z,8.53
2023-02-13T14:08:56.157Z,7.50
2023-02-13T14:10:58.271Z,6.17
2023-02-13T14:13:02.574Z,7.60
2023-02-13T14:15:04.779Z,6.70
2023-02-13T14:17:13.759Z,7.47
2023-02-13T14:19:38.382Z,7.20
2023-02-13T14:21:40.113Z,7.00
2023-02-13T14:23:50.592Z,6.30
2023-02-13T14:26:16.840Z,6.60
2023-02-13T14:28:23.505Z,6.60
2023-02-13T14:30:32.730Z,6.97
2023-02-13T14:32:36.787Z,6.77
2023-02-13T14:34:40.320Z,6.70
2023-02-13T14:36:47.815Z,6.90
2023-02-13T14:38:58.291Z,9.17
2023-02-13T14:41:00.336Z,6.83
2023-02-13T14:43:29.030Z,7.07
2023-02-13T14:45:54.644Z,6.63
2023-02-13T14:47:58.397Z,7.00
2023-02-13T14:50:02.594Z,6.60
2023-02-13T14:52:15.859Z,8.33
2023-02-13T14:54:34.045Z,7.37
2023-02-13T14:56:37.920Z,6.30
2023-02-13T14:58:49.790Z,6.90
2023-02-13T15:01:11.373Z,7.20
2023-02-13T15:03:31.472Z,6.60
2023-02-13T15:05:35.170Z,6.90
2023-02-13T15:07:44.229Z,7.03
2023-02-13T15:09:56.018Z,7.97
2023-02-13T15:11:57.877Z,6.70
2023-02-13T15:14:14.804Z,7.77
2023-02-13T15:16:17.935Z,7.70
2023-02-13T15:18:26.243Z,7.27
2023-02-13T15:20:33.940Z,7.67
2023-02-13T15:22:46.807Z,7.57
2023-02-13T15:24:49.790Z,7.53
2023-02-13T15:27:00.910Z,7.13
2023-02-13T15:29:27.921Z,7.60
2023-02-13T15:31:33.532Z,7.60
2023-02-13T15:33:44.798Z,6.83
2023-02-13T15:35:46.717Z,8.00
2023-02-13T15:37:48.436Z,7.57
2023-02-13T15:39:50.265Z,7.67
2023-02-13T15:42:03.037Z,9.17
2023-02-13T15:44:05.552Z,7.80
2023-02-13T15:46:24.409Z,8.00
2023-02-13T15:48:26.196Z,9.20
2023-02-13T15:50:33.943Z,10.43
2023-02-13T15:52:39.277Z,8.47
2023-02-13T15:54:52.236Z,13.40
2023-02-13T15:56:56.996Z,9.03
2023-02-13T15:59:00.847Z,7.77
2023-02-13T16:01:10.148Z,9.17
2023-02-13T16:03:17.682Z,8.30
2023-02-13T16:05:29.333Z,8.20
2023-02-13T16:07:51.655Z,8.10
2023-02-13T16:10:16.236Z,8.77
2023-02-13T16:12:26.851Z,8.90
2023-02-13T16:14:31.682Z,11.60
2023-02-13T16:16:51.361Z,10.00
2023-02-13T16:18:53.557Z,8.80
2023-02-13T16:20:56.698Z,8.53
2023-02-13T16:23:04.904Z,8.57
2023-02-13T16:25:12.731Z,9.13
2023-02-13T16:27:15.711Z,9.67
2023-02-13T16:29:21.100Z,9.60
2023-02-13T16:31:23.527Z,10.50
2023-02-13T16:33:31.954Z,9.67
2023-02-13T16:35:37.934Z,10.27
2023-02-13T16:37:50.403Z,9.90
2023-02-13T16:39:52.339Z,9.13
2023-02-13T16:41:54.400Z,10.10
2023-02-13T16:43:58.520Z,10.20
2023-02-13T16:46:32.546Z,10.13
2023-02-13T16:48:35.201Z,10.60
2023-02-13T16:50:36.873Z,11.00
2023-02-13T16:52:38.758Z,11.33
2023-02-13T16:54:58.493Z,10.63
2023-02-13T16:57:13.534Z,11.00
2023-02-13T16:59:23.227Z,10.10
2023-02-13T17:01:24.867Z,10.57
2023-02-13T17:03:26.559Z,10.83
2023-02-13T17:05:28.885Z,10.90
2023-02-13T17:07:33.915Z,11.23
2023-02-13T17:09:35.562Z,10.30
2023-02-13T17:11:37.192Z,11.50
2023-02-13T17:13:38.811Z,11.43
2023-02-13T17:15:46.410Z,10.40
2023-02-13T17:17:48.882Z,10.70
2023-02-13T17:19:50.939Z,10.67
2023-02-13T17:21:54.580Z,11.70
2023-02-13T17:23:56.246Z,12.20
2023-02-13T17:25:58.826Z,11.90
2023-02-13T17:28:07.475Z,12.33
2023-02-13T17:30:24.077Z,11.80
2023-02-13T17:32:27.189Z,11.47
2023-02-13T17:34:28.870Z,11.33
2023-02-13T17:36:30.508Z,10.90
2023-02-13T17:38:32.135Z,11.17
2023-02-13T17:40:33.829Z,12.80
2023-02-13T17:42:36.401Z,12.87
2023-02-13T17:44:38.044Z,11.50
2023-02-13T17:46:40.015Z,11.80
2023-02-13T17:48:41.616Z,12.70
2023-02-13T17:50:43.332Z,12.23
2023-02-13T17:52:48.755Z,13.07
2023-02-13T17:54:50.624Z,13.47
2023-02-13T17:56:52.302Z,12.50
2023-02-13T17:58:54.065Z,12.87
2023-02-13T18:00:56.077Z,11.77
2023-02-13T18:02:59.725Z,13.10
2023-02-13T18:05:01.407Z,13.30
2023-02-13T18:07:03.200Z,13.27
2023-02-13T18:09:04.849Z,13.13
2023-02-13T18:11:10.996Z,14.00
2023-02-13T18:13:12.912Z,14.17
2023-02-13T18:15:15.068Z,12.83
2023-02-13T18:17:18.138Z,13.70
2023-02-13T18:19:19.812Z,14.47
2023-02-13T18:21:24.562Z,13.20
2023-02-13T18:23:26.305Z,13.33
2023-02-13T18:25:29.064Z,14.77
2023-02-13T18:27:30.826Z,14.70
2023-02-13T18:29:32.570Z,14.43
2023-02-13T18:31:34.417Z,15.17
2023-02-13T18:33:36.392Z,15.83
2023-02-13T18:35:38.139Z,14.90
2023-02-13T18:37:39.761Z,15.10
2023-02-13T18:39:41.662Z,14.27
2023-02-13T18:41:44.354Z,14.20
2023-02-13T18:43:46.348Z,15.00
2023-02-13T18:45:48.191Z,14.43
2023-02-13T18:47:49.942Z,15.93
2023-02-13T18:49:51.887Z,13.97
2023-02-13T18:51:53.924Z,16.00
2023-02-13T18:53:55.647Z,15.53
2023-02-13T18:56:06.076Z,16.97
2023-02-13T18:58:08.169Z,16.90
2023-02-13T19:00:10.921Z,17.10
2023-02-13T19:02:12.670Z,15.53
2023-02-13T19:04:14.542Z,16.40
2023-02-13T19:06:21.897Z,16.17
2023-02-13T19:08:23.585Z,16.67
2023-02-13T19:10:25.248Z,16.90
2023-02-13T19:12:27.191Z,16.90
2023-02-13T19:14:29.216Z,18.27
2023-02-13T19:16:32.302Z,17.40
2023-02-13T19:18:38.915Z,17.20
2023-02-13T19:20:41.313Z,16.00
2023-02-13T19:22:43.288Z,17.93
2023-02-13T19:24:45.110Z,17.07
2023-02-13T19:26:47.325Z,17.40
2023-02-13T19:28:49.477Z,16.87
2023-02-13T19:30:51.279Z,17.70
2023-02-13T19:32:54.668Z,20.10
2023-02-13T19:34:56.624Z,19.20
2023-02-13T19:36:58.730Z,20.20
2023-02-13T19:39:03.745Z,18.50
2023-02-13T19:41:06.772Z,19.50
2023-02-13T19:43:08.395Z,18.97
2023-02-13T19:45:10.453Z,19.30
2023-02-13T19:47:12.103Z,19.77
2023-02-13T19:49:13.796Z,19.20
2023-02-13T19:51:19.157Z,20.67
2023-02-13T19:53:20.813Z,19.60
2023-02-13T19:55:24.621Z,20.90
2023-02-13T19:57:26.591Z,20.57
2023-02-13T19:59:28.459Z,21.37
2023-02-13T20:01:30.610Z,20.27
2023-02-13T20:03:32.615Z,21.20
2023-02-13T20:05:41.231Z,22.47
2023-02-13T20:07:42.935Z,21.53
2023-02-13T20:09:44.912Z,23.20
2023-02-13T20:11:47.038Z,23.00
2023-02-13T20:13:52.657Z,23.53
2023-02-13T20:15:55.149Z,23.63
2023-02-13T20:17:56.980Z,21.70
2023-02-13T20:19:58.943Z,21.47
2023-02-13T20:22:01.666Z,24.60
2023-02-13T20:24:04.337Z,24.30
2023-02-13T20:26:08.261Z,25.50
2023-02-13T20:28:11.474Z,22.13
2023-02-13T20:30:16.154Z,25.60
2023-02-13T20:32:17.954Z,25.10
2023-02-13T20:34:19.675Z,24.70
2023-02-13T20:36:24.161Z,26.00
2023-02-13T20:38:25.932Z,26.43
2023-02-13T20:40:27.783Z,25.50
2023-02-13T20:42:33.138Z,27.27
2023-02-13T20:44:34.794Z,28.50
2023-02-13T20:46:38.548Z,27.70
2023-02-13T20:48:40.886Z,28.97
2023-02-13T20:50:42.527Z,31.73
2023-02-13T20:52:44.201Z,45.50
2023-02-13T20:54:47.036Z,33.30
2023-02-13T20:56:49.060Z,37.50
2023-02-13T20:58:52.577Z,32.60
2023-02-13T21:00:54.242Z,59.53
2023-02-13T21:02:55.943Z,33.00
2023-02-13T21:04:57.644Z,36.00
2023-02-13T21:06:59.424Z,30.60
2023-02-13T21:09:02.621Z,29.47
2023-02-13T21:11:08.044Z,31.07
2023-02-13T21:13:10.499Z,32.13
2023-02-13T21:15:12.215Z,30.57
2023-02-13T21:17:13.898Z,30.23
2023-02-13T21:19:19.242Z,30.20
2023-02-13T21:21:22.879Z,32.23
2023-02-13T21:23:24.583Z,33.20
2023-02-13T21:25:26.408Z,31.37
2023-02-13T21:27:28.481Z,32.30
2023-02-13T21:29:30.181Z,31.90
2023-02-13T21:31:35.462Z,33.30
2023-02-13T21:33:37.162Z,31.10
2023-02-13T21:35:38.864Z,31.60
2023-02-13T21:37:40.722Z,32.10
2023-02-13T21:39:42.377Z,32.63
2023-02-13T21:41:45.983Z,33.30
2023-02-13T21:43:49.550Z,33.00
2023-02-13T21:45:51.271Z,33.73
2023-02-13T21:47:56.570Z,32.10
2023-02-13T21:49:58.356Z,31.57
2023-02-13T21:51:59.984Z,31.40
2023-02-13T21:54:02.798Z,31.30
2023-02-13T21:56:10.629Z,32.60
2023-02-13T21:58:12.277Z,34.50
2023-02-13T22:00:15.569Z,33.53
2023-02-13T22:02:18.242Z,33.77
2023-02-13T22:04:20.087Z,33.83
2023-02-13T22:06:22.036Z,32.87
2023-02-13T22:08:23.744Z,33.50
2023-02-13T22:10:25.457Z,35.60
2023-02-13T22:12:28.204Z,35.67
2023-02-13T22:14:29.873Z,34.20
2023-02-13T22:16:33.568Z,34.90
2023-02-13T22:18:38.572Z,34.83
2023-02-13T22:20:40.388Z,33.10
2023-02-13T22:22:42.033Z,33.53
2023-02-13T22:24:43.652Z,35.13
2023-02-13T22:26:45.413Z,32.70
2023-02-13T22:28:47.315Z,34.23
2023-02-13T22:30:49.077Z,31.93
2023-02-13T22:32:50.922Z,34.77
2023-02-13T22:34:52.541Z,34.40
2023-02-13T22:36:55.010Z,34.77
2023-02-13T22:38:56.623Z,33.30
2023-02-13T22:41:05.045Z,33.23
2023-02-13T22:43:07.334Z,33.87
2023-02-13T22:45:09.401Z,34.47
2023-02-13T22:47:11.365Z,33.83
2023-02-13T22:49:13.005Z,34.20
2023-02-13T22:51:17.436Z,34.10
2023-02-13T22:53:19.051Z,33.50
2023-02-13T22:55:20.718Z,33.43
2023-02-13T22:57:22.334Z,34.97
2023-02-13T22:59:24.022Z,34.30
2023-02-13T23:01:28.108Z,32.83
2023-02-13T23:03:32.765Z,32.53
2023-02-13T23:05:34.399Z,34.07
2023-02-13T23:07:36.089Z,34.27
2023-02-13T23:09:37.718Z,34.90
2023-02-13T23:11:58.082Z,35.03
2023-02-13T23:14:00.349Z,32.67
2023-02-13T23:16:02.037Z,33.50
2023-02-13T23:18:13.613Z,33.23
2023-02-13T23:20:15.797Z,36.23
2023-02-13T23:22:17.596Z,33.90
2023-02-13T23:24:19.265Z,32.97
2023-02-13T23:26:20.977Z,36.20
2023-02-13T23:28:22.600Z,34.07
2023-02-13T23:30:24.916Z,34.90
2023-02-13T23:32:27.367Z,35.17
2023-02-13T23:34:29.045Z,34.07
2023-02-13T23:36:30.762Z,36.53
2023-02-13T23:38:32.420Z,34.60
2023-02-13T23:40:34.048Z,36.80
2023-02-13T23:42:35.745Z,35.30
2023-02-13T23:44:37.409Z,35.43
2023-02-13T23:46:39.207Z,34.87
2023-02-13T23:48:40.954Z,35.70
2023-02-13T23:50:42.622Z,35.07
2023-02-13T23:52:44.259Z,36.60
2023-02-13T23:54:46.080Z,36.40
2023-02-13T23:56:50.274Z,38.53
2023-02-13T23:58:52.315Z,35.47
